ΕΜΥ, Εθνική Μετεωρολογική Υπηρεσία - Δελτία Καιρού, Προγνώσεις

ΑΕΡΟΝΑΥΤΙΛΙΑ

GREEK AIRPORTS CODES

EUROPEAN AIRPORTS CODES

LFPO 220000Z 01010KT CAVOK 06/02 Q1025 NOSIG=